Time;durP1;ratioP1;P1;durP2;ratioP2;P2;SDS_P1;SDS_P2;PMS_P1;PMS_P2;Temp;Humidity;BMP_temperature;BMP_pressure;BME280_temperature;BME280_humidity;BME280_pressure;Samples;Min_cycle;Max_cycle;Signal;HPM_P1;HPM_P2
2023/12/03 00:01:59;;;;;;;24.38;12.45;;;3.30;83.30;;;;;;5063167;28;20556;-61
2023/12/03 00:04:25;;;;;;;27.80;13.32;;;3.30;83.30;;;;;;5060242;28;20029;-61
2023/12/03 00:06:52;;;;;;;20.50;12.25;;;3.20;83.50;;;;;;5056313;28;20037;-61
2023/12/03 00:09:18;;;;;;;26.38;14.00;;;3.20;83.50;;;;;;5060977;28;20476;-63
2023/12/03 00:11:44;;;;;;;23.40;12.75;;;3.20;83.70;;;;;;5061231;28;20067;-61
2023/12/03 00:14:09;;;;;;;31.55;12.32;;;3.10;83.70;;;;;;5056283;28;20063;-63
2023/12/03 00:16:35;;;;;;;31.05;13.27;;;3.20;83.80;;;;;;5053851;28;20469;-61
2023/12/03 00:19:01;;;;;;;25.65;14.32;;;3.20;83.70;;;;;;5054455;28;20546;-61
2023/12/03 00:21:27;;;;;;;24.63;12.82;;;3.10;83.80;;;;;;5050013;28;20086;-61
2023/12/03 00:23:52;;;;;;;32.47;14.35;;;3.10;84.00;;;;;;5046638;28;20049;-61
2023/12/03 00:26:18;;;;;;;22.77;11.75;;;3.10;84.10;;;;;;5051384;28;20110;-61
2023/12/03 00:28:44;;;;;;;28.48;12.70;;;3.10;84.30;;;;;;5044275;28;20024;-61
2023/12/03 00:31:10;;;;;;;30.90;12.85;;;3.10;84.50;;;;;;5051748;28;20033;-61
2023/12/03 00:33:35;;;;;;;29.60;11.35;;;3.00;84.50;;;;;;5048931;28;20531;-61
2023/12/03 00:36:01;;;;;;;28.73;13.35;;;3.00;84.60;;;;;;5051271;28;20084;-61
2023/12/03 00:38:27;;;;;;;29.10;12.23;;;3.10;84.70;;;;;;5049468;28;20503;-61
2023/12/03 00:40:53;;;;;;;24.42;11.80;;;3.10;84.70;;;;;;5051415;28;20403;-61
2023/12/03 00:43:18;;;;;;;29.85;13.68;;;3.10;84.80;;;;;;5055494;28;20116;-63
2023/12/03 00:45:44;;;;;;;26.45;11.80;;;3.10;84.80;;;;;;5057887;28;20169;-63
2023/12/03 00:48:10;;;;;;;25.02;11.52;;;3.10;84.80;;;;;;5055406;28;20052;-63
2023/12/03 00:50:35;;;;;;;21.92;10.57;;;3.10;85.00;;;;;;5060873;28;20093;-63
2023/12/03 00:53:01;;;;;;;21.02;12.48;;;3.10;85.10;;;;;;5054765;28;20091;-61
2023/12/03 00:55:27;;;;;;;23.60;12.45;;;3.10;85.30;;;;;;5053037;28;20040;-61
2023/12/03 00:57:53;;;;;;;26.02;14.27;;;3.10;85.50;;;;;;5052323;28;20071;-63
2023/12/03 01:00:18;;;;;;;20.48;10.90;;;3.00;85.40;;;;;;5061858;28;20037;-63
2023/12/03 01:02:44;;;;;;;18.50;11.02;;;3.00;85.60;;;;;;5055517;28;20374;-63
2023/12/03 01:05:10;;;;;;;24.05;13.68;;;3.10;85.50;;;;;;5052627;28;20075;-63
2023/12/03 01:07:36;;;;;;;24.95;13.13;;;3.10;85.50;;;;;;5056630;28;20040;-61
2023/12/03 01:10:01;;;;;;;24.75;12.25;;;3.20;85.50;;;;;;5054495;28;20028;-61
2023/12/03 01:12:28;;;;;;;30.33;12.13;;;3.20;85.50;;;;;;5060329;28;20090;-61
2023/12/03 01:14:54;;;;;;;27.17;13.38;;;3.10;85.50;;;;;;5059433;28;20025;-61
2023/12/03 01:17:20;;;;;;;26.38;14.00;;;3.10;85.60;;;;;;5069351;28;20395;-61
2023/12/03 01:19:45;;;;;;;30.23;13.52;;;3.10;85.60;;;;;;5065239;28;20037;-62
2023/12/03 01:22:11;;;;;;;28.70;12.93;;;3.10;85.70;;;;;;5054054;28;20454;-61
2023/12/03 01:24:37;;;;;;;30.08;12.48;;;3.10;85.70;;;;;;5062295;28;20032;-63
2023/12/03 01:27:04;;;;;;;33.65;13.35;;;3.20;85.60;;;;;;5059727;28;20028;-63
2023/12/03 01:29:30;;;;;;;26.50;13.35;;;3.20;85.50;;;;;;5056226;28;20112;-63
2023/12/03 01:31:57;;;;;;;26.42;12.73;;;3.30;85.50;;;;;;5055850;28;20116;-63
2023/12/03 01:34:23;;;;;;;20.60;12.35;;;3.20;85.40;;;;;;5062593;28;20036;-63
2023/12/03 01:36:49;;;;;;;28.63;13.20;;;3.20;85.50;;;;;;5063106;28;20434;-63
2023/12/03 01:39:15;;;;;;;31.08;12.75;;;3.20;85.60;;;;;;5058593;28;20472;-62
2023/12/03 01:41:41;;;;;;;25.90;11.85;;;3.20;86.00;;;;;;5063056;28;20036;-63
2023/12/03 01:44:07;;;;;;;37.70;14.25;;;3.10;86.30;;;;;;5058872;28;20476;-63
2023/12/03 01:46:33;;;;;;;23.45;10.40;;;3.10;86.70;;;;;;5063520;28;20071;-62
2023/12/03 01:48:59;;;;;;;24.45;11.35;;;3.00;86.80;;;;;;5059655;28;20073;-63
2023/12/03 01:51:26;;;;;;;25.80;12.18;;;3.00;87.00;;;;;;5059245;28;20107;-62
2023/12/03 01:53:53;;;;;;;31.35;13.68;;;3.00;87.50;;;;;;5053874;28;20033;-63
2023/12/03 01:56:19;;;;;;;26.75;12.43;;;3.00;87.70;;;;;;5059229;28;20068;-63
2023/12/03 01:58:45;;;;;;;24.75;11.80;;;3.00;87.70;;;;;;5056683;28;20052;-63
2023/12/03 02:01:11;;;;;;;27.55;11.40;;;3.00;87.70;;;;;;5056835;28;20029;-63
2023/12/03 02:03:37;;;;;;;24.10;11.80;;;3.00;87.80;;;;;;5055658;28;20423;-63
2023/12/03 02:06:05;;;;;;;28.10;12.55;;;3.00;87.90;;;;;;5054120;28;20383;-61
2023/12/03 02:08:32;;;;;;;29.10;10.40;;;3.10;87.80;;;;;;5060232;28;20111;-63
2023/12/03 02:10:59;;;;;;;67.18;14.85;;;3.20;87.70;;;;;;5051349;28;20115;-61
2023/12/03 02:13:28;;;;;;;19.63;10.90;;;3.20;87.60;;;;;;5052358;28;20033;-61
2023/12/03 02:15:55;;;;;;;22.48;11.55;;;3.20;87.60;;;;;;5063629;28;20475;-63
2023/12/03 02:18:21;;;;;;;28.10;11.48;;;3.30;87.90;;;;;;5062025;28;20035;-64
2023/12/03 02:20:47;;;;;;;21.13;10.07;;;3.30;87.80;;;;;;5057090;28;20033;-61
2023/12/03 02:23:14;;;;;;;24.35;11.18;;;3.30;87.80;;;;;;5059665;28;20468;-63
2023/12/03 02:25:41;;;;;;;23.92;11.75;;;3.30;87.90;;;;;;5060047;28;20037;-60
2023/12/03 02:28:07;;;;;;;24.58;10.20;;;3.30;87.90;;;;;;5051421;28;20454;-61
2023/12/03 02:30:32;;;;;;;18.23;10.23;;;3.30;88.00;;;;;;5054971;28;20057;-63
2023/12/03 02:32:58;;;;;;;20.92;11.02;;;3.30;87.90;;;;;;5058101;28;20769;-61
2023/12/03 02:35:24;;;;;;;21.23;10.98;;;3.40;87.90;;;;;;5040538;28;20472;-61
2023/12/03 02:37:50;;;;;;;21.67;11.60;;;3.50;87.80;;;;;;5059890;28;20068;-60
2023/12/03 02:40:16;;;;;;;32.10;13.55;;;3.50;87.80;;;;;;5056945;28;20060;-61
2023/12/03 02:42:41;;;;;;;25.23;11.82;;;3.40;87.80;;;;;;5056642;28;20068;-63
2023/12/03 02:45:11;;;;;;;59.03;14.25;;;3.40;88.00;;;;;;5059530;28;20032;-63
2023/12/03 02:47:37;;;;;;;24.70;13.18;;;3.40;88.00;;;;;;5052432;28;20029;-61
2023/12/03 02:50:03;;;;;;;24.45;11.68;;;3.40;87.90;;;;;;5047454;28;20029;-63
2023/12/03 02:52:30;;;;;;;37.53;11.32;;;3.50;87.80;;;;;;5050348;28;20036;-63
2023/12/03 02:54:55;;;;;;;28.55;12.95;;;3.60;87.70;;;;;;5060467;28;20029;-63
2023/12/03 02:57:21;;;;;;;25.65;13.27;;;3.60;87.60;;;;;;5059299;28;20029;-63
2023/12/03 02:59:47;;;;;;;26.02;13.52;;;3.60;87.60;;;;;;5050024;28;20171;-63
2023/12/03 03:02:13;;;;;;;33.45;11.85;;;3.60;87.60;;;;;;5035399;28;20032;-61
2023/12/03 03:04:38;;;;;;;27.55;11.93;;;3.60;87.70;;;;;;5056604;28;20036;-61
2023/12/03 03:07:05;;;;;;;23.75;12.15;;;3.60;87.70;;;;;;5045580;28;20287;-61
2023/12/03 03:09:31;;;;;;;32.33;14.20;;;3.70;87.60;;;;;;5053459;28;20029;-61
2023/12/03 03:11:57;;;;;;;31.88;14.20;;;3.70;87.60;;;;;;5042246;28;20079;-61
2023/12/03 03:14:26;;;;;;;23.70;12.30;;;3.60;87.70;;;;;;5047057;28;20509;-63
2023/12/03 03:16:52;;;;;;;20.55;12.68;;;3.70;87.80;;;;;;5051764;28;20488;-64
2023/12/03 03:19:18;;;;;;;27.33;13.43;;;3.70;87.80;;;;;;5056876;28;20049;-61
2023/12/03 03:21:44;;;;;;;21.80;11.48;;;3.60;87.80;;;;;;5055640;28;20165;-61
2023/12/03 03:24:09;;;;;;;28.50;12.65;;;3.70;87.90;;;;;;5055826;28;20041;-63
2023/12/03 03:26:38;;;;;;;28.80;13.43;;;3.70;87.80;;;;;;5055032;28;20483;-63
2023/12/03 03:29:05;;;;;;;22.25;12.43;;;3.70;87.70;;;;;;5060881;28;20379;-63
2023/12/03 03:31:31;;;;;;;23.05;12.52;;;3.80;87.80;;;;;;5055834;28;20025;-63
2023/12/03 03:33:57;;;;;;;21.55;12.45;;;3.80;87.80;;;;;;5057195;28;20679;-63
2023/12/03 03:36:23;;;;;;;30.13;14.10;;;3.80;87.80;;;;;;5056476;28;20044;-63
2023/12/03 03:38:50;;;;;;;24.17;13.38;;;3.80;87.80;;;;;;5057268;28;20402;-61
2023/12/03 03:41:15;;;;;;;24.05;12.98;;;3.90;87.60;;;;;;5055492;28;20166;-63
2023/12/03 03:43:41;;;;;;;24.15;11.40;;;3.90;87.60;;;;;;5054778;28;20563;-63
2023/12/03 03:46:11;;;;;;;23.98;13.35;;;3.90;87.60;;;;;;5052240;28;20138;-61
2023/12/03 03:48:37;;;;;;;29.20;13.75;;;3.90;87.50;;;;;;5047486;28;20074;-60
2023/12/03 03:51:06;;;;;;;29.88;14.68;;;3.80;87.50;;;;;;5052728;28;20491;-63
2023/12/03 03:53:32;;;;;;;27.65;13.15;;;3.90;87.60;;;;;;5051388;28;20182;-63
2023/12/03 03:55:57;;;;;;;26.52;12.07;;;3.90;87.50;;;;;;5049451;28;20108;-60
2023/12/03 03:58:23;;;;;;;22.25;12.35;;;3.90;87.50;;;;;;5052208;28;20059;-61
2023/12/03 04:00:49;;;;;;;22.55;12.10;;;3.90;87.60;;;;;;5056829;28;20040;-63
2023/12/03 04:03:15;;;;;;;25.00;12.80;;;3.90;87.60;;;;;;5059317;28;20037;-60
2023/12/03 04:05:42;;;;;;;26.50;14.30;;;4.00;87.50;;;;;;5048773;28;20029;-61
2023/12/03 04:08:07;;;;;;;18.67;11.23;;;4.00;87.50;;;;;;5055922;28;20486;-63
2023/12/03 04:10:33;;;;;;;28.48;12.75;;;4.00;87.40;;;;;;5051586;28;20025;-63
2023/12/03 04:12:59;;;;;;;26.80;13.10;;;4.00;87.40;;;;;;5057511;28;20377;-63
2023/12/03 04:15:24;;;;;;;22.55;12.55;;;4.00;87.40;;;;;;5065010;28;20036;-63
2023/12/03 04:17:50;;;;;;;23.00;12.88;;;4.00;87.40;;;;;;5058249;28;20025;-63
2023/12/03 04:20:16;;;;;;;25.13;13.35;;;4.00;87.30;;;;;;5061084;28;20063;-63
2023/12/03 04:22:41;;;;;;;26.80;13.15;;;4.00;87.80;;;;;;5057626;28;20132;-61
2023/12/03 04:25:08;;;;;;;31.35;14.00;;;4.00;87.30;;;;;;5053535;28;20032;-61
2023/12/03 04:27:33;;;;;;;17.42;9.98;;;4.00;87.30;;;;;;5054796;28;20060;-61
2023/12/03 04:29:59;;;;;;;20.60;12.55;;;4.10;87.20;;;;;;5051725;28;20052;-63
2023/12/03 04:32:25;;;;;;;16.45;9.35;;;4.10;87.00;;;;;;5054759;28;20075;-63
2023/12/03 04:34:50;;;;;;;14.68;10.13;;;4.10;87.10;;;;;;5054757;28;20031;-61
2023/12/03 04:37:16;;;;;;;17.48;10.63;;;4.10;87.00;;;;;;5058011;28;20376;-61
2023/12/03 04:39:45;;;;;;;14.48;8.88;;;4.10;86.80;;;;;;5050602;28;20032;-63
2023/12/03 04:42:11;;;;;;;16.90;8.90;;;4.20;86.80;;;;;;5046305;28;20067;-63
2023/12/03 04:44:36;;;;;;;22.70;11.35;;;4.20;86.80;;;;;;5048971;28;20064;-63
2023/12/03 04:47:02;;;;;;;19.02;10.98;;;4.10;86.50;;;;;;5055039;28;20032;-63
2023/12/03 04:49:28;;;;;;;17.95;10.77;;;4.10;86.60;;;;;;5061959;28;20036;-63
2023/12/03 04:51:53;;;;;;;20.15;11.73;;;4.10;86.60;;;;;;5055602;28;20427;-63
2023/12/03 04:54:19;;;;;;;17.63;10.20;;;4.10;86.40;;;;;;5060631;28;20051;-63
2023/12/03 04:56:45;;;;;;;17.98;10.27;;;4.10;86.40;;;;;;5061564;28;20036;-63
2023/12/03 04:59:10;;;;;;;16.30;10.45;;;4.10;86.40;;;;;;5054073;28;20064;-63
2023/12/03 05:01:36;;;;;;;20.08;11.43;;;4.20;86.40;;;;;;5047249;28;20433;-63
2023/12/03 05:04:02;;;;;;;21.98;11.73;;;4.10;86.10;;;;;;5045455;28;20032;-61
2023/12/03 05:06:28;;;;;;;21.83;10.68;;;4.10;86.10;;;;;;5049036;28;20063;-61
2023/12/03 05:08:53;;;;;;;23.13;12.35;;;4.00;86.20;;;;;;5060688;28;20040;-63
2023/12/03 05:11:19;;;;;;;17.38;10.07;;;4.00;86.20;;;;;;5050519;28;20029;-63
2023/12/03 05:13:45;;;;;;;15.40;10.38;;;4.00;86.10;;;;;;5050773;28;20037;-61
2023/12/03 05:16:10;;;;;;;19.20;9.32;;;4.00;86.10;;;;;;5056941;28;20103;-61
2023/12/03 05:18:36;;;;;;;16.67;9.95;;;4.00;86.10;;;;;;5047592;28;20044;-61
2023/12/03 05:21:03;;;;;;;19.10;8.95;;;4.00;86.00;;;;;;5050575;28;20063;-63
2023/12/03 05:23:29;;;;;;;14.35;9.38;;;4.00;86.00;;;;;;5050002;28;20071;-61
2023/12/03 05:25:57;;;;;;;19.33;9.32;;;4.00;85.80;;;;;;5057002;28;20031;-63
2023/12/03 05:28:23;;;;;;;16.83;9.20;;;4.00;85.80;;;;;;5058064;28;20112;-63
2023/12/03 05:30:49;;;;;;;21.10;10.18;;;4.00;85.70;;;;;;5051919;28;20475;-63
2023/12/03 05:33:15;;;;;;;16.55;8.77;;;4.00;85.70;;;;;;5057132;28;20074;-63
2023/12/03 05:35:41;;;;;;;17.23;9.18;;;4.10;85.60;;;;;;5057966;28;20395;-63
2023/12/03 05:38:07;;;;;;;12.15;8.05;;;4.10;85.40;;;;;;5057493;28;20028;-60
2023/12/03 05:40:33;;;;;;;16.40;8.45;;;4.10;85.30;;;;;;5059300;28;20018;-61
2023/12/03 05:43:00;;;;;;;16.98;9.38;;;4.10;85.30;;;;;;5055502;28;20032;-63
2023/12/03 05:45:25;;;;;;;17.98;8.48;;;4.10;85.10;;;;;;5053199;28;20103;-60
2023/12/03 05:47:51;;;;;;;16.58;8.48;;;4.10;85.10;;;;;;5058423;28;20183;-61
2023/12/03 05:50:17;;;;;;;12.30;7.13;;;4.10;85.10;;;;;;5056680;28;20025;-61
2023/12/03 05:52:43;;;;;;;13.13;8.00;;;4.10;85.00;;;;;;5060754;28;20035;-61
2023/12/03 05:55:09;;;;;;;12.45;7.97;;;4.00;84.90;;;;;;5053676;28;20411;-63
2023/12/03 05:57:34;;;;;;;17.45;9.43;;;4.00;85.00;;;;;;5058057;28;20078;-63
2023/12/03 06:00:00;;;;;;;15.55;9.25;;;3.90;85.00;;;;;;5055569;28;20437;-63
2023/12/03 06:02:26;;;;;;;16.35;8.00;;;3.80;84.80;;;;;;5059296;28;20469;-63
2023/12/03 06:04:51;;;;;;;13.00;7.25;;;3.80;85.00;;;;;;5050460;28;20108;-64
2023/12/03 06:07:17;;;;;;;17.20;7.82;;;3.80;85.00;;;;;;5063287;28;20082;-64
2023/12/03 06:09:43;;;;;;;11.20;7.53;;;3.80;84.90;;;;;;5092937;28;20025;-63
2023/12/03 06:12:08;;;;;;;16.13;7.57;;;3.90;84.90;;;;;;5059885;28;20036;-60
2023/12/03 06:14:34;;;;;;;13.80;7.13;;;3.90;84.60;;;;;;5047305;28;20024;-61
2023/12/03 06:17:00;;;;;;;13.02;7.53;;;3.90;84.60;;;;;;5039216;28;20050;-61
2023/12/03 06:19:26;;;;;;;16.65;9.15;;;3.80;84.40;;;;;;5061012;28;20060;-61
2023/12/03 06:21:51;;;;;;;13.20;8.00;;;3.80;84.40;;;;;;5057703;28;20028;-61
2023/12/03 06:24:17;;;;;;;15.80;7.97;;;3.80;84.40;;;;;;5057410;28;20076;-61
2023/12/03 06:26:43;;;;;;;14.95;9.40;;;3.80;84.50;;;;;;5051485;28;20020;-61
2023/12/03 06:29:08;;;;;;;10.20;7.22;;;3.80;84.40;;;;;;5056811;28;20029;-62
2023/12/03 06:31:34;;;;;;;17.75;9.63;;;3.70;84.50;;;;;;5059799;28;20056;-61
2023/12/03 06:34:00;;;;;;;14.77;8.80;;;3.70;84.50;;;;;;5057441;28;20071;-64
2023/12/03 06:36:26;;;;;;;14.40;9.77;;;3.60;84.50;;;;;;5054584;28;20189;-64
2023/12/03 06:38:53;;;;;;;20.52;10.18;;;3.60;84.50;;;;;;5052194;28;20535;-61
2023/12/03 06:41:18;;;;;;;17.92;9.00;;;3.60;84.60;;;;;;5059582;28;20097;-62
2023/12/03 06:43:44;;;;;;;16.02;8.45;;;3.60;84.70;;;;;;5061171;28;20036;-61
2023/12/03 06:46:10;;;;;;;17.92;9.52;;;3.60;84.70;;;;;;5057848;28;20056;-61
2023/12/03 06:48:35;;;;;;;15.23;8.35;;;3.60;84.70;;;;;;5054617;28;20041;-62
2023/12/03 06:51:01;;;;;;;13.00;8.07;;;3.60;84.70;;;;;;5051691;28;20104;-61
2023/12/03 06:53:27;;;;;;;15.13;8.02;;;3.60;84.50;;;;;;5058522;28;20078;-62
2023/12/03 06:55:52;;;;;;;16.25;9.45;;;3.60;84.50;;;;;;5055390;28;20170;-61
2023/12/03 06:58:18;;;;;;;18.95;8.82;;;3.70;84.50;;;;;;5049697;28;20037;-62
2023/12/03 07:00:44;;;;;;;17.02;9.10;;;3.60;84.20;;;;;;5049354;28;20130;-62
2023/12/03 07:03:09;;;;;;;23.38;10.18;;;3.50;84.30;;;;;;5055809;28;20048;-61
2023/12/03 07:05:35;;;;;;;15.18;8.65;;;3.50;84.40;;;;;;5051442;28;20024;-62
2023/12/03 07:08:01;;;;;;;13.77;7.13;;;3.40;84.50;;;;;;5050304;28;20033;-61
2023/12/03 07:10:26;;;;;;;19.67;9.35;;;3.40;84.60;;;;;;5048692;28;20032;-61
2023/12/03 07:12:52;;;;;;;17.25;8.90;;;3.40;84.60;;;;;;5037753;28;20032;-62
2023/12/03 07:15:19;;;;;;;19.90;10.85;;;3.40;84.30;;;;;;5048268;28;20037;-61
2023/12/03 07:17:44;;;;;;;27.60;10.55;;;3.30;84.10;;;;;;5048400;28;20024;-64
2023/12/03 07:20:11;;;;;;;20.40;9.63;;;3.20;84.30;;;;;;5054844;28;20487;-64
2023/12/03 07:22:38;;;;;;;13.45;8.10;;;3.10;84.30;;;;;;5054442;28;20053;-64
2023/12/03 07:25:05;;;;;;;18.73;9.82;;;3.10;84.50;;;;;;5053382;28;20119;-64
2023/12/03 07:27:30;;;;;;;14.88;9.88;;;3.00;84.40;;;;;;5056041;28;20086;-64
2023/12/03 07:29:56;;;;;;;23.02;9.77;;;3.00;84.50;;;;;;5058115;28;20029;-64
2023/12/03 07:32:23;;;;;;;21.83;12.25;;;2.90;84.40;;;;;;5051708;28;20477;-64
2023/12/03 07:34:49;;;;;;;14.40;9.75;;;2.90;84.50;;;;;;5050391;28;20391;-64
2023/12/03 07:37:14;;;;;;;16.00;8.93;;;2.80;84.60;;;;;;5049617;28;20103;-61
2023/12/03 07:39:40;;;;;;;17.42;9.02;;;2.80;84.70;;;;;;5052074;28;20112;-61
2023/12/03 07:42:06;;;;;;;19.42;10.57;;;2.90;84.70;;;;;;5050602;28;20036;-62
2023/12/03 07:44:32;;;;;;;22.85;11.60;;;2.80;84.40;;;;;;5058729;28;20037;-61
2023/12/03 07:46:58;;;;;;;16.40;9.70;;;2.80;84.50;;;;;;5059855;28;20515;-61
2023/12/03 07:49:23;;;;;;;11.65;8.02;;;2.80;84.50;;;;;;5051919;28;20036;-61
2023/12/03 07:51:49;;;;;;;15.35;8.73;;;2.90;84.50;;;;;;5061034;28;20046;-62
2023/12/03 07:54:16;;;;;;;18.60;8.43;;;2.90;84.40;;;;;;5059022;28;20040;-62
2023/12/03 07:56:42;;;;;;;14.63;8.55;;;2.90;84.30;;;;;;5051103;28;20094;-64
2023/12/03 07:59:08;;;;;;;12.15;8.38;;;2.90;84.10;;;;;;5049067;28;20041;-60
2023/12/03 08:01:34;;;;;;;20.33;9.60;;;2.90;84.00;;;;;;5061032;28;20502;-60
2023/12/03 08:04:00;;;;;;;17.33;10.40;;;2.90;84.00;;;;;;5050107;28;20036;-61
2023/12/03 08:06:26;;;;;;;15.43;8.90;;;2.90;84.00;;;;;;5048911;28;20028;-60
2023/12/03 08:08:53;;;;;;;18.45;9.95;;;2.90;83.80;;;;;;5047201;28;20507;-63
2023/12/03 08:11:19;;;;;;;16.20;9.52;;;2.90;83.90;;;;;;5055868;28;20028;-63
2023/12/03 08:13:46;;;;;;;18.70;8.40;;;3.00;83.80;;;;;;5055323;28;20029;-60
2023/12/03 08:16:12;;;;;;;15.98;9.90;;;3.10;83.60;;;;;;5048213;28;20029;-63
2023/12/03 08:18:38;;;;;;;16.92;9.15;;;3.00;83.50;;;;;;5057777;28;20388;-63
2023/12/03 08:21:04;;;;;;;16.75;8.20;;;3.00;83.50;;;;;;5053515;28;20021;-63
2023/12/03 08:23:32;;;;;;;17.20;8.23;;;3.10;83.50;;;;;;5053879;28;20093;-64
2023/12/03 08:26:02;;;;;;;20.08;10.05;;;3.10;83.30;;;;;;5054711;28;20439;-63
2023/12/03 08:28:27;;;;;;;13.60;8.98;;;3.10;83.30;;;;;;5052526;28;20025;-63
2023/12/03 08:30:53;;;;;;;19.05;9.35;;;3.10;83.20;;;;;;5049605;28;20032;-64
2023/12/03 08:33:19;;;;;;;17.67;9.55;;;3.10;83.30;;;;;;5055293;28;20511;-63
2023/12/03 08:35:45;;;;;;;14.07;8.30;;;3.10;83.20;;;;;;5039370;28;20051;-61
2023/12/03 08:38:11;;;;;;;15.05;8.63;;;3.10;83.20;;;;;;5040912;28;20025;-63
2023/12/03 08:40:37;;;;;;;17.48;8.63;;;3.10;83.10;;;;;;5051106;28;20396;-63
2023/12/03 08:43:02;;;;;;;15.57;7.55;;;3.20;83.10;;;;;;5048222;28;20033;-63
2023/12/03 08:45:29;;;;;;;11.30;7.82;;;3.20;83.00;;;;;;5030112;28;20045;-61
2023/12/03 08:47:56;;;;;;;17.75;8.93;;;3.20;82.90;;;;;;5037261;28;20021;-61
2023/12/03 08:50:27;;;;;;;18.17;8.43;;;3.20;82.80;;;;;;5040685;28;20036;-61
2023/12/03 08:52:53;;;;;;;17.17;9.43;;;3.30;82.70;;;;;;5038917;28;20025;-63
2023/12/03 08:55:18;;;;;;;13.70;9.15;;;3.30;82.80;;;;;;5042711;28;20034;-63
2023/12/03 08:57:44;;;;;;;12.25;8.95;;;3.30;82.80;;;;;;5039701;28;20044;-61
2023/12/03 09:00:12;;;;;;;15.48;8.60;;;3.30;82.80;;;;;;5051166;28;20035;-63
2023/12/03 09:02:39;;;;;;;17.85;9.27;;;3.30;82.80;;;;;;5048655;28;20025;-63
2023/12/03 09:05:05;;;;;;;18.48;10.05;;;3.30;82.40;;;;;;5045991;28;20042;-63
2023/12/03 09:07:31;;;;;;;21.25;8.88;;;3.20;82.00;;;;;;5039047;28;20025;-63
2023/12/03 09:09:58;;;;;;;16.35;8.95;;;3.20;82.40;;;;;;5044501;28;20361;-63
2023/12/03 09:12:23;;;;;;;22.85;9.45;;;3.30;82.40;;;;;;5054197;28;20033;-63
2023/12/03 09:14:49;;;;;;;17.80;8.38;;;3.40;82.30;;;;;;5052308;28;20029;-63
2023/12/03 09:17:15;;;;;;;13.05;7.28;;;3.40;82.20;;;;;;5046643;28;20033;-63
2023/12/03 09:19:41;;;;;;;17.23;10.00;;;3.50;82.20;;;;;;5047566;28;20091;-65
2023/12/03 09:22:06;;;;;;;18.67;9.45;;;3.50;81.70;;;;;;5065016;28;20124;-62
2023/12/03 09:24:32;;;;;;;18.08;8.23;;;3.60;81.50;;;;;;5054233;28;20025;-63
2023/12/03 09:26:58;;;;;;;13.68;6.50;;;3.60;81.30;;;;;;5052070;28;20655;-63
2023/12/03 09:29:24;;;;;;;15.55;8.88;;;3.60;81.40;;;;;;5053519;28;20064;-61
2023/12/03 09:31:50;;;;;;;16.17;8.25;;;3.60;81.00;;;;;;5039580;28;20167;-63
2023/12/03 09:34:15;;;;;;;15.90;8.88;;;3.60;80.80;;;;;;5039511;28;20040;-63
2023/12/03 09:36:41;;;;;;;17.73;7.63;;;3.60;80.10;;;;;;5044401;28;20040;-63
2023/12/03 09:39:07;;;;;;;21.27;9.20;;;3.60;80.50;;;;;;5033568;28;20034;-64
2023/12/03 09:41:41;;;;;;;17.98;8.48;;;3.60;80.20;;;;;;5037288;28;20060;-61
2023/12/03 09:44:21;;;;;;;16.50;7.50;;;3.60;79.80;;;;;;5047160;28;20495;-63
2023/12/03 09:46:50;;;;;;;18.90;8.52;;;3.60;79.30;;;;;;5042708;28;20028;-61
2023/12/03 09:49:20;;;;;;;13.48;7.88;;;3.70;79.40;;;;;;5043037;28;20033;-63
2023/12/03 09:51:46;;;;;;;14.02;7.10;;;3.80;79.20;;;;;;5054874;28;20035;-63
2023/12/03 09:54:12;;;;;;;19.88;9.43;;;3.80;79.00;;;;;;5048813;28;20387;-60
2023/12/03 09:56:40;;;;;;;15.77;7.20;;;3.80;78.50;;;;;;5057214;28;20039;-63
2023/12/03 09:59:08;;;;;;;17.13;8.43;;;3.80;78.10;;;;;;5049736;28;20125;-61
2023/12/03 10:01:37;;;;;;;16.85;7.72;;;3.90;78.00;;;;;;5055218;28;20084;-61
2023/12/03 10:04:04;;;;;;;13.50;8.20;;;3.90;77.90;;;;;;5054825;28;20111;-60
2023/12/03 10:06:34;;;;;;;18.27;8.13;;;3.90;77.40;;;;;;5047844;28;20399;-63
2023/12/03 10:09:02;;;;;;;14.48;8.32;;;4.00;77.40;;;;;;5054601;28;20017;-63
2023/12/03 10:11:35;;;;;;;16.30;7.93;;;4.10;77.20;;;;;;5046580;28;20044;-63
2023/12/03 10:14:01;;;;;;;12.13;8.05;;;4.30;77.50;;;;;;5055759;28;20032;-61
2023/12/03 10:16:27;;;;;;;15.07;7.25;;;4.80;77.00;;;;;;5045556;28;20059;-61
2023/12/03 10:18:53;;;;;;;24.25;8.25;;;6.00;75.00;;;;;;5041703;28;20041;-62
2023/12/03 10:21:18;;;;;;;18.73;8.13;;;7.20;70.40;;;;;;5045017;28;20500;-62
2023/12/03 10:23:57;;;;;;;13.10;7.25;;;8.50;67.90;;;;;;5057312;28;20048;-62
2023/12/03 10:26:22;;;;;;;9.48;6.05;;;9.60;65.10;;;;;;5058309;28;20044;-64
2023/12/03 10:28:48;;;;;;;10.20;5.00;;;10.20;63.70;;;;;;5044523;28;20393;-65
2023/12/03 10:31:15;;;;;;;11.88;6.30;;;10.20;61.90;;;;;;5058103;28;20017;-65
2023/12/03 10:33:44;;;;;;;15.93;6.38;;;9.50;62.80;;;;;;5059196;28;20108;-65
2023/12/03 10:36:11;;;;;;;9.55;5.30;;;8.90;62.80;;;;;;5051523;28;20039;-64
2023/12/03 10:38:38;;;;;;;16.40;7.78;;;8.30;63.90;;;;;;5058324;28;20432;-64
2023/12/03 10:41:13;;;;;;;10.48;5.70;;;7.70;64.50;;;;;;5057673;28;20024;-65
2023/12/03 10:43:40;;;;;;;11.00;5.50;;;7.40;66.00;;;;;;5057185;28;20067;-62
2023/12/03 10:46:13;;;;;;;14.68;7.53;;;7.90;65.90;;;;;;5047338;28;20029;-62
2023/12/03 10:48:39;;;;;;;11.55;5.38;;;8.80;62.40;;;;;;5050397;28;20131;-62
2023/12/03 10:51:07;;;;;;;18.23;6.78;;;9.50;60.50;;;;;;5055433;28;20093;-61
2023/12/03 10:53:34;;;;;;;10.10;5.10;;;9.70;59.70;;;;;;5054002;28;20029;-62
2023/12/03 10:56:05;;;;;;;12.05;6.30;;;9.80;58.80;;;;;;5054777;28;20028;-62
2023/12/03 10:58:36;;;;;;;13.15;6.53;;;10.20;57.20;;;;;;5036021;28;20534;-62
2023/12/03 11:01:12;;;;;;;12.23;6.18;;;10.40;56.90;;;;;;5061695;28;20387;-62
2023/12/03 11:04:03;;;;;;;15.60;6.18;;;10.20;56.40;;;;;;5047140;28;20029;-62
2023/12/03 11:06:33;;;;;;;13.18;5.63;;;10.20;56.50;;;;;;5051159;28;20032;-62
2023/12/03 11:08:59;;;;;;;14.25;4.90;;;10.60;57.40;;;;;;5056327;28;20383;-64
2023/12/03 11:11:25;;;;;;;12.35;5.63;;;11.10;56.80;;;;;;5054721;28;20021;-62
2023/12/03 11:13:56;;;;;;;15.43;6.18;;;11.50;56.40;;;;;;5059682;28;20021;-62
2023/12/03 11:16:23;;;;;;;10.00;5.40;;;11.80;54.00;;;;;;5055080;28;20033;-62
2023/12/03 11:18:58;;;;;;;11.27;5.40;;;12.00;53.30;;;;;;5061197;28;20033;-62
2023/12/03 11:21:52;;;;;;;11.02;4.55;;;12.40;53.50;;;;;;5056063;28;20025;-62
2023/12/03 11:24:44;;;;;;;9.73;4.85;;;13.40;51.10;;;;;;5052597;28;20403;-64
2023/12/03 11:27:10;;;;;;;11.87;6.30;;;13.50;49.30;;;;;;5051835;28;20029;-65
2023/12/03 11:29:52;;;;;;;10.30;4.22;;;13.30;49.80;;;;;;5051950;28;20519;-61
2023/12/03 11:32:19;;;;;;;9.75;5.13;;;13.10;50.90;;;;;;5051057;28;20499;-62
2023/12/03 11:34:56;;;;;;;7.30;3.95;;;12.50;49.50;;;;;;5053237;28;20048;-64
2023/12/03 11:37:22;;;;;;;7.65;3.80;;;11.60;51.30;;;;;;5054414;28;20025;-61
2023/12/03 11:39:48;;;;;;;6.68;4.13;;;10.80;52.20;;;;;;5054043;28;20195;-62
2023/12/03 11:42:15;;;;;;;9.18;4.25;;;10.10;53.60;;;;;;5049618;28;20033;-62
2023/12/03 11:44:42;;;;;;;7.85;4.20;;;9.70;55.40;;;;;;5047382;28;20041;-65
2023/12/03 11:47:09;;;;;;;7.57;4.30;;;9.40;55.10;;;;;;5051234;28;20035;-65
2023/12/03 11:49:40;;;;;;;8.98;3.80;;;9.00;55.50;;;;;;5053645;28;20064;-62
2023/12/03 11:52:06;;;;;;;9.50;4.28;;;8.90;56.90;;;;;;5040267;28;20052;-61
2023/12/03 11:54:38;;;;;;;6.03;4.20;;;9.10;57.50;;;;;;5051219;28;20037;-61
2023/12/03 11:57:14;;;;;;;5.30;3.45;;;9.50;57.50;;;;;;5057579;28;20024;-62
2023/12/03 11:59:44;;;;;;;9.35;4.57;;;9.80;57.30;;;;;;5051238;28;20025;-64
2023/12/03 12:02:10;;;;;;;8.20;4.22;;;10.50;56.20;;;;;;5048688;28;20036;-65
2023/12/03 12:04:35;;;;;;;12.02;4.80;;;10.90;54.60;;;;;;5056739;28;20043;-65
2023/12/03 12:07:17;;;;;;;7.28;3.20;;;11.00;54.00;;;;;;5050108;28;20020;-62
2023/12/03 12:09:45;;;;;;;9.50;4.50;;;10.50;55.50;;;;;;5058616;28;20052;-62
2023/12/03 12:12:11;;;;;;;6.57;3.03;;;10.30;55.60;;;;;;5054056;28;20024;-62
2023/12/03 12:14:37;;;;;;;8.35;4.03;;;10.20;55.00;;;;;;5050838;28;20396;-61
2023/12/03 12:17:08;;;;;;;7.68;4.10;;;9.80;55.10;;;;;;5051248;28;20440;-64
2023/12/03 12:19:33;;;;;;;10.55;3.78;;;9.20;54.90;;;;;;5056709;28;20023;-61
2023/12/03 12:21:59;;;;;;;11.07;3.72;;;8.60;55.50;;;;;;5028576;28;20029;-64
2023/12/03 12:24:25;;;;;;;5.75;3.35;;;8.20;57.30;;;;;;5056730;28;20392;-64
2023/12/03 12:26:51;;;;;;;6.25;3.58;;;7.80;58.40;;;;;;5058208;28;20074;-64
2023/12/03 12:29:21;;;;;;;6.20;3.05;;;7.60;59.10;;;;;;5053756;28;20031;-64
2023/12/03 12:31:47;;;;;;;11.77;4.32;;;7.50;59.80;;;;;;5049379;28;20107;-64
2023/12/03 12:34:13;;;;;;;7.03;3.83;;;7.40;60.30;;;;;;5055700;28;20564;-64
2023/12/03 12:36:43;;;;;;;5.75;3.65;;;7.30;60.90;;;;;;5054382;28;20033;-64
2023/12/03 12:39:24;;;;;;;7.00;4.25;;;7.30;61.10;;;;;;5049404;28;20036;-64
2023/12/03 12:41:49;;;;;;;11.75;5.28;;;7.20;61.50;;;;;;5064096;28;20028;-64